North Petherton, United Kingdom
Current Conditions -  °F | °C
As of 8:50 AM on Wednesday 26 Nov 2014 (Local Time) from EGDY Reporting Station
Haze Haze  
Wind Chill: 41°   Ceiling: 300
Heat Index: 45°   Visibility: 0.93mi
Dew Point: 43°   Wind: 6mph
Humidity: 93%   Direction: 330°NNW
Pressure: 29.88"   Gusts: NA
Location:  51.09°N, 3.02°W
Report Text: EGDY 260850Z 33005KT 1500 BR OVC003 07/06 Q1012 AMB NOSIG
Loading
Personal Weather Stations






























Interactive Weather Map New forecast layout! Learn more

10-Day Weather Forecast

Advertisements
Track Severe Weather on mobile